<?xml version="1.0" encoding="UTF-8" standalone="no" ?>
<gpx xmlns="http://www.topografix.com/GPX/1/1" xmlns:xsi="http://www.w3.org/2001/XMLSchema-instance" xsi:schemaLocation="http://www.topografix.com/GPX/1/1 http://www.topografix.com/GPX/1/1/gpx.xsd" version="1.1" creator="VisuGPX - https://www.visugpx.com">
  <metadata>
    <name>14/18 St Julien-Molin-Molette / St Sauveur-en-rue (gare)</name>
    <desc><![CDATA[File with points/tracks from Locus Map Classic/3.60.0]]></desc>
  </metadata>
  <trk>
    <name><![CDATA[St Julien-Molin-Molette / St Sauveur-en-rue (gare)]]></name>
    <extensions>
      <line xmlns="http://www.topografix.com/GPX/gpx_style/0/2">
        <color>0000FF</color>
        <opacity>0.59</opacity>
        <width>4.0</width>
      </line>
    </extensions>
    <trkseg>
      <trkpt lat="45.32237" lon="4.61503">
        <ele>588.73</ele>
        <time>2022-05-05T06:33:30.000Z</time>
      </trkpt>
      <trkpt lat="45.32222" lon="4.61478">
        <ele>590.2</ele>
        <time>2022-05-05T06:35:07.585Z</time>
      </trkpt>
      <trkpt lat="45.32206" lon="4.61455">
        <ele>591.7</ele>
        <time>2022-05-05T06:35:23.000Z</time>
      </trkpt>
      <trkpt lat="45.32182" lon="4.61452">
        <ele>591.57</ele>
        <time>2022-05-05T06:36:24.825Z</time>
      </trkpt>
      <trkpt lat="45.32162" lon="4.61438">
        <ele>591.6</ele>
        <time>2022-05-05T06:36:47.065Z</time>
      </trkpt>
      <trkpt lat="45.32145" lon="4.61416">
        <ele>606.06</ele>
        <time>2022-05-05T06:37:42.823Z</time>
      </trkpt>
      <trkpt lat="45.32135" lon="4.61385">
        <ele>606.2</ele>
        <time>2022-05-05T06:38:16.000Z</time>
      </trkpt>
      <trkpt lat="45.32121" lon="4.61361">
        <ele>606.19</ele>
        <time>2022-05-05T06:38:47.547Z</time>
      </trkpt>
      <trkpt lat="45.32105" lon="4.61338">
        <ele>600.96</ele>
        <time>2022-05-05T06:41:57.720Z</time>
      </trkpt>
      <trkpt lat="45.32089" lon="4.61316">
        <ele>601.1</ele>
        <time>2022-05-05T06:42:23.804Z</time>
      </trkpt>
      <trkpt lat="45.3208" lon="4.61286">
        <ele>601.09</ele>
        <time>2022-05-05T06:42:52.000Z</time>
      </trkpt>
      <trkpt lat="45.32065" lon="4.61261">
        <ele>600.82</ele>
        <time>2022-05-05T06:43:28.000Z</time>
      </trkpt>
      <trkpt lat="45.3206" lon="4.61229">
        <ele>630.26</ele>
        <time>2022-05-05T06:44:02.000Z</time>
      </trkpt>
      <trkpt lat="45.3206" lon="4.61196">
        <ele>634.33</ele>
        <time>2022-05-05T06:44:34.984Z</time>
      </trkpt>
      <trkpt lat="45.32054" lon="4.61165">
        <ele>634.64</ele>
        <time>2022-05-05T06:45:25.000Z</time>
      </trkpt>
      <trkpt lat="45.32047" lon="4.61134">
        <ele>637.16</ele>
        <time>2022-05-05T06:46:07.861Z</time>
      </trkpt>
      <trkpt lat="45.3204" lon="4.61104">
        <ele>644.26</ele>
        <time>2022-05-05T06:47:01.000Z</time>
      </trkpt>
      <trkpt lat="45.32028" lon="4.61075">
        <ele>648.31</ele>
        <time>2022-05-05T06:47:45.946Z</time>
      </trkpt>
      <trkpt lat="45.32018" lon="4.61047">
        <ele>651.53</ele>
        <time>2022-05-05T06:48:23.000Z</time>
      </trkpt>
      <trkpt lat="45.3201" lon="4.61016">
        <ele>654.37</ele>
        <time>2022-05-05T06:48:56.000Z</time>
      </trkpt>
      <trkpt lat="45.32003" lon="4.60986">
        <ele>658.28</ele>
        <time>2022-05-05T06:49:28.000Z</time>
      </trkpt>
      <trkpt lat="45.31995" lon="4.60955">
        <ele>661.1</ele>
        <time>2022-05-05T06:49:57.142Z</time>
      </trkpt>
      <trkpt lat="45.31988" lon="4.60925">
        <ele>667.16</ele>
        <time>2022-05-05T06:50:34.824Z</time>
      </trkpt>
      <trkpt lat="45.31983" lon="4.60893">
        <ele>669.01</ele>
        <time>2022-05-05T06:51:09.000Z</time>
      </trkpt>
      <trkpt lat="45.31979" lon="4.60862">
        <ele>671.49</ele>
        <time>2022-05-05T06:51:40.000Z</time>
      </trkpt>
      <trkpt lat="45.3198" lon="4.60829">
        <ele>672.93</ele>
        <time>2022-05-05T06:52:14.000Z</time>
      </trkpt>
      <trkpt lat="45.31976" lon="4.60797">
        <ele>675.38</ele>
        <time>2022-05-05T06:54:44.801Z</time>
      </trkpt>
      <trkpt lat="45.31975" lon="4.60763">
        <ele>673.71</ele>
        <time>2022-05-05T06:55:16.000Z</time>
      </trkpt>
      <trkpt lat="45.31972" lon="4.60731">
        <ele>674.87</ele>
        <time>2022-05-05T06:55:44.898Z</time>
      </trkpt>
      <trkpt lat="45.31967" lon="4.60699">
        <ele>675.38</ele>
        <time>2022-05-05T06:56:13.000Z</time>
      </trkpt>
      <trkpt lat="45.31955" lon="4.60671">
        <ele>678.59</ele>
        <time>2022-05-05T06:56:36.000Z</time>
      </trkpt>
      <trkpt lat="45.31941" lon="4.60646">
        <ele>680.53</ele>
        <time>2022-05-05T06:57:08.799Z</time>
      </trkpt>
      <trkpt lat="45.31931" lon="4.60616">
        <ele>683.76</ele>
        <time>2022-05-05T06:57:40.128Z</time>
      </trkpt>
      <trkpt lat="45.31919" lon="4.60588">
        <ele>687.59</ele>
        <time>2022-05-05T06:58:17.041Z</time>
      </trkpt>
      <trkpt lat="45.31907" lon="4.6056">
        <ele>687.92</ele>
        <time>2022-05-05T06:58:52.921Z</time>
      </trkpt>
      <trkpt lat="45.31899" lon="4.60529">
        <ele>684.26</ele>
        <time>2022-05-05T06:59:26.000Z</time>
      </trkpt>
      <trkpt lat="45.3189" lon="4.605">
        <ele>685.34</ele>
        <time>2022-05-05T06:59:56.000Z</time>
      </trkpt>
      <trkpt lat="45.31881" lon="4.6047">
        <ele>691.1</ele>
        <time>2022-05-05T07:00:22.000Z</time>
      </trkpt>
      <trkpt lat="45.31871" lon="4.60441">
        <ele>700.41</ele>
        <time>2022-05-05T07:00:49.724Z</time>
      </trkpt>
      <trkpt lat="45.31873" lon="4.60408">
        <ele>703.31</ele>
        <time>2022-05-05T07:01:30.579Z</time>
      </trkpt>
      <trkpt lat="45.31883" lon="4.60379">
        <ele>703.66</ele>
        <time>2022-05-05T07:02:11.000Z</time>
      </trkpt>
      <trkpt lat="45.31893" lon="4.6035">
        <ele>705.22</ele>
        <time>2022-05-05T07:02:42.799Z</time>
      </trkpt>
      <trkpt lat="45.31897" lon="4.60318">
        <ele>707.92</ele>
        <time>2022-05-05T07:03:17.000Z</time>
      </trkpt>
      <trkpt lat="45.31893" lon="4.60286">
        <ele>707.55</ele>
        <time>2022-05-05T07:03:44.520Z</time>
      </trkpt>
      <trkpt lat="45.31889" lon="4.60254">
        <ele>708.94</ele>
        <time>2022-05-05T07:04:12.684Z</time>
      </trkpt>
      <trkpt lat="45.31884" lon="4.60223">
        <ele>708.51</ele>
        <time>2022-05-05T07:04:39.805Z</time>
      </trkpt>
      <trkpt lat="45.31875" lon="4.60192">
        <ele>708.78</ele>
        <time>2022-05-05T07:05:08.000Z</time>
      </trkpt>
      <trkpt lat="45.31859" lon="4.6017">
        <ele>711.7</ele>
        <time>2022-05-05T07:08:11.885Z</time>
      </trkpt>
      <trkpt lat="45.31843" lon="4.60146">
        <ele>708.54</ele>
        <time>2022-05-05T07:08:46.124Z</time>
      </trkpt>
      <trkpt lat="45.31828" lon="4.60122">
        <ele>707.04</ele>
        <time>2022-05-05T07:09:07.745Z</time>
      </trkpt>
      <trkpt lat="45.31814" lon="4.60097">
        <ele>707.76</ele>
        <time>2022-05-05T07:09:31.539Z</time>
      </trkpt>
      <trkpt lat="45.31797" lon="4.60076">
        <ele>709.41</ele>
        <time>2022-05-05T07:09:57.000Z</time>
      </trkpt>
      <trkpt lat="45.3178" lon="4.60055">
        <ele>710.3</ele>
        <time>2022-05-05T07:10:24.000Z</time>
      </trkpt>
      <trkpt lat="45.31762" lon="4.60034">
        <ele>715.35</ele>
        <time>2022-05-05T07:10:49.705Z</time>
      </trkpt>
      <trkpt lat="45.31748" lon="4.60008">
        <ele>719.37</ele>
        <time>2022-05-05T07:11:19.000Z</time>
      </trkpt>
      <trkpt lat="45.31735" lon="4.59982">
        <ele>722.76</ele>
        <time>2022-05-05T07:11:49.964Z</time>
      </trkpt>
      <trkpt lat="45.31723" lon="4.59953">
        <ele>722.57</ele>
        <time>2022-05-05T07:12:19.000Z</time>
      </trkpt>
      <trkpt lat="45.31707" lon="4.59927">
        <ele>726.3</ele>
        <time>2022-05-05T07:12:51.705Z</time>
      </trkpt>
      <trkpt lat="45.31696" lon="4.599">
        <ele>728.34</ele>
        <time>2022-05-05T07:13:17.000Z</time>
      </trkpt>
      <trkpt lat="45.31684" lon="4.59872">
        <ele>728.04</ele>
        <time>2022-05-05T07:14:03.000Z</time>
      </trkpt>
      <trkpt lat="45.31676" lon="4.59842">
        <ele>726.94</ele>
        <time>2022-05-05T07:14:45.798Z</time>
      </trkpt>
      <trkpt lat="45.31669" lon="4.59811">
        <ele>724.02</ele>
        <time>2022-05-05T07:15:15.000Z</time>
      </trkpt>
      <trkpt lat="45.3167" lon="4.59778">
        <ele>721.36</ele>
        <time>2022-05-05T07:15:43.024Z</time>
      </trkpt>
      <trkpt lat="45.3167" lon="4.59744">
        <ele>719.98</ele>
        <time>2022-05-05T07:16:08.566Z</time>
      </trkpt>
      <trkpt lat="45.31663" lon="4.59713">
        <ele>719.7</ele>
        <time>2022-05-05T07:16:34.042Z</time>
      </trkpt>
      <trkpt lat="45.31658" lon="4.59681">
        <ele>716.05</ele>
        <time>2022-05-05T07:16:59.129Z</time>
      </trkpt>
      <trkpt lat="45.31659" lon="4.59649">
        <ele>716.88</ele>
        <time>2022-05-05T07:17:23.000Z</time>
      </trkpt>
      <trkpt lat="45.31654" lon="4.59617">
        <ele>715.73</ele>
        <time>2022-05-05T07:17:46.743Z</time>
      </trkpt>
      <trkpt lat="45.31653" lon="4.59585">
        <ele>715.47</ele>
        <time>2022-05-05T07:18:11.308Z</time>
      </trkpt>
      <trkpt lat="45.31654" lon="4.59552">
        <ele>715.85</ele>
        <time>2022-05-05T07:18:37.000Z</time>
      </trkpt>
      <trkpt lat="45.31653" lon="4.59519">
        <ele>716</ele>
        <time>2022-05-05T07:19:01.806Z</time>
      </trkpt>
      <trkpt lat="45.31657" lon="4.59486">
        <ele>713.69</ele>
        <time>2022-05-05T07:19:32.000Z</time>
      </trkpt>
      <trkpt lat="45.31654" lon="4.59454">
        <ele>713.1</ele>
        <time>2022-05-05T07:19:57.101Z</time>
      </trkpt>
      <trkpt lat="45.31646" lon="4.59424">
        <ele>712.64</ele>
        <time>2022-05-05T07:20:19.560Z</time>
      </trkpt>
      <trkpt lat="45.31644" lon="4.59392">
        <ele>712.83</ele>
        <time>2022-05-05T07:20:43.720Z</time>
      </trkpt>
      <trkpt lat="45.31648" lon="4.59358">
        <ele>711.89</ele>
        <time>2022-05-05T07:21:08.524Z</time>
      </trkpt>
      <trkpt lat="45.3165" lon="4.59326">
        <ele>709.79</ele>
        <time>2022-05-05T07:21:46.000Z</time>
      </trkpt>
      <trkpt lat="45.31655" lon="4.59292">
        <ele>709.04</ele>
        <time>2022-05-05T07:22:12.000Z</time>
      </trkpt>
      <trkpt lat="45.31665" lon="4.59263">
        <ele>709.89</ele>
        <time>2022-05-05T07:22:37.699Z</time>
      </trkpt>
      <trkpt lat="45.31665" lon="4.5923">
        <ele>620.63</ele>
        <time>2022-05-05T07:23:10.659Z</time>
      </trkpt>
      <trkpt lat="45.31643" lon="4.59226">
        <ele>620.63</ele>
        <time>2022-05-05T07:23:31.677Z</time>
      </trkpt>
      <trkpt lat="45.31635" lon="4.59257">
        <ele>620.63</ele>
        <time>2022-05-05T07:24:14.600Z</time>
      </trkpt>
      <trkpt lat="45.31612" lon="4.59262">
        <ele>711.57</ele>
        <time>2022-05-05T07:25:01.000Z</time>
      </trkpt>
      <trkpt lat="45.31588" lon="4.59264">
        <ele>709.1</ele>
        <time>2022-05-05T07:25:34.764Z</time>
      </trkpt>
      <trkpt lat="45.31566" lon="4.59272">
        <ele>706.81</ele>
        <time>2022-05-05T07:26:08.000Z</time>
      </trkpt>
      <trkpt lat="45.31546" lon="4.59284">
        <ele>699.2</ele>
        <time>2022-05-05T07:26:40.664Z</time>
      </trkpt>
      <trkpt lat="45.31524" lon="4.59275">
        <ele>690.26</ele>
        <time>2022-05-05T07:27:18.841Z</time>
      </trkpt>
      <trkpt lat="45.31504" lon="4.59259">
        <ele>683.49</ele>
        <time>2022-05-05T07:27:50.000Z</time>
      </trkpt>
      <trkpt lat="45.31484" lon="4.59244">
        <ele>680.11</ele>
        <time>2022-05-05T07:28:16.586Z</time>
      </trkpt>
      <trkpt lat="45.31461" lon="4.59249">
        <ele>679.41</ele>
        <time>2022-05-05T07:28:42.639Z</time>
      </trkpt>
      <trkpt lat="45.31444" lon="4.59269">
        <ele>676.44</ele>
        <time>2022-05-05T07:29:09.000Z</time>
      </trkpt>
      <trkpt lat="45.31432" lon="4.59296">
        <ele>677.35</ele>
        <time>2022-05-05T07:29:31.584Z</time>
      </trkpt>
      <trkpt lat="45.31422" lon="4.59325">
        <ele>677.67</ele>
        <time>2022-05-05T07:29:54.000Z</time>
      </trkpt>
      <trkpt lat="45.31413" lon="4.59355">
        <ele>681.89</ele>
        <time>2022-05-05T07:30:13.525Z</time>
      </trkpt>
      <trkpt lat="45.31401" lon="4.59383">
        <ele>682.68</ele>
        <time>2022-05-05T07:30:35.544Z</time>
      </trkpt>
      <trkpt lat="45.31385" lon="4.59405">
        <ele>681.26</ele>
        <time>2022-05-05T07:30:59.117Z</time>
      </trkpt>
      <trkpt lat="45.31366" lon="4.59425">
        <ele>678.98</ele>
        <time>2022-05-05T07:31:24.518Z</time>
      </trkpt>
      <trkpt lat="45.31351" lon="4.5945">
        <ele>678.21</ele>
        <time>2022-05-05T07:31:49.101Z</time>
      </trkpt>
      <trkpt lat="45.31338" lon="4.59477">
        <ele>678.42</ele>
        <time>2022-05-05T07:32:12.599Z</time>
      </trkpt>
      <trkpt lat="45.31327" lon="4.59505">
        <ele>676.55</ele>
        <time>2022-05-05T07:32:35.760Z</time>
      </trkpt>
      <trkpt lat="45.31311" lon="4.59527">
        <ele>674.97</ele>
        <time>2022-05-05T07:33:01.000Z</time>
      </trkpt>
      <trkpt lat="45.31294" lon="4.59548">
        <ele>675.72</ele>
        <time>2022-05-05T07:33:21.103Z</time>
      </trkpt>
      <trkpt lat="45.31277" lon="4.5957">
        <ele>676.08</ele>
        <time>2022-05-05T07:33:46.000Z</time>
      </trkpt>
      <trkpt lat="45.31262" lon="4.59594">
        <ele>678.29</ele>
        <time>2022-05-05T07:34:09.000Z</time>
      </trkpt>
      <trkpt lat="45.31245" lon="4.59615">
        <ele>675.5</ele>
        <time>2022-05-05T07:34:31.040Z</time>
      </trkpt>
      <trkpt lat="45.31227" lon="4.59635">
        <ele>674.77</ele>
        <time>2022-05-05T07:34:54.585Z</time>
      </trkpt>
      <trkpt lat="45.31209" lon="4.59657">
        <ele>673.61</ele>
        <time>2022-05-05T07:35:17.621Z</time>
      </trkpt>
      <trkpt lat="45.31192" lon="4.59679">
        <ele>673.74</ele>
        <time>2022-05-05T07:35:42.000Z</time>
      </trkpt>
      <trkpt lat="45.31175" lon="4.597">
        <ele>672.96</ele>
        <time>2022-05-05T07:36:05.000Z</time>
      </trkpt>
      <trkpt lat="45.31158" lon="4.59723">
        <ele>674.41</ele>
        <time>2022-05-05T07:36:26.644Z</time>
      </trkpt>
      <trkpt lat="45.31141" lon="4.59745">
        <ele>675.14</ele>
        <time>2022-05-05T07:36:48.739Z</time>
      </trkpt>
      <trkpt lat="45.31123" lon="4.59768">
        <ele>675.08</ele>
        <time>2022-05-05T07:37:12.150Z</time>
      </trkpt>
      <trkpt lat="45.31106" lon="4.59789">
        <ele>674.59</ele>
        <time>2022-05-05T07:37:34.678Z</time>
      </trkpt>
      <trkpt lat="45.3109" lon="4.59812">
        <ele>674.35</ele>
        <time>2022-05-05T07:37:58.598Z</time>
      </trkpt>
      <trkpt lat="45.31072" lon="4.59833">
        <ele>674.88</ele>
        <time>2022-05-05T07:38:21.040Z</time>
      </trkpt>
      <trkpt lat="45.31055" lon="4.59854">
        <ele>673.38</ele>
        <time>2022-05-05T07:38:45.546Z</time>
      </trkpt>
      <trkpt lat="45.31032" lon="4.59846">
        <ele>674.06</ele>
        <time>2022-05-05T07:39:17.767Z</time>
      </trkpt>
      <trkpt lat="45.3101" lon="4.59833">
        <ele>675.92</ele>
        <time>2022-05-05T07:42:31.747Z</time>
      </trkpt>
      <trkpt lat="45.31002" lon="4.59801">
        <ele>671.62</ele>
        <time>2022-05-05T07:43:00.644Z</time>
      </trkpt>
      <trkpt lat="45.30999" lon="4.59769">
        <ele>666.33</ele>
        <time>2022-05-05T07:43:32.405Z</time>
      </trkpt>
      <trkpt lat="45.30999" lon="4.59737">
        <ele>656.52</ele>
        <time>2022-05-05T07:44:07.741Z</time>
      </trkpt>
      <trkpt lat="45.30999" lon="4.59704">
        <ele>640.55</ele>
        <time>2022-05-05T07:44:41.778Z</time>
      </trkpt>
      <trkpt lat="45.31003" lon="4.59673">
        <ele>608.08</ele>
        <time>2022-05-05T07:45:38.766Z</time>
      </trkpt>
      <trkpt lat="45.30999" lon="4.59638">
        <ele>593.97</ele>
        <time>2022-05-05T07:46:25.618Z</time>
      </trkpt>
      <trkpt lat="45.30984" lon="4.59614">
        <ele>588.31</ele>
        <time>2022-05-05T07:46:54.564Z</time>
      </trkpt>
      <trkpt lat="45.30972" lon="4.59584">
        <ele>585.82</ele>
        <time>2022-05-05T07:47:09.646Z</time>
      </trkpt>
      <trkpt lat="45.30957" lon="4.59557">
        <ele>596.59</ele>
        <time>2022-05-05T07:47:27.524Z</time>
      </trkpt>
      <trkpt lat="45.30941" lon="4.59533">
        <ele>600.44</ele>
        <time>2022-05-05T07:47:46.046Z</time>
      </trkpt>
      <trkpt lat="45.30923" lon="4.59511">
        <ele>608.41</ele>
        <time>2022-05-05T07:48:05.624Z</time>
      </trkpt>
      <trkpt lat="45.30905" lon="4.59489">
        <ele>620.7</ele>
        <time>2022-05-05T07:48:24.080Z</time>
      </trkpt>
      <trkpt lat="45.30887" lon="4.59466">
        <ele>627.67</ele>
        <time>2022-05-05T07:48:43.601Z</time>
      </trkpt>
      <trkpt lat="45.3087" lon="4.59445">
        <ele>639.6</ele>
        <time>2022-05-05T07:49:04.659Z</time>
      </trkpt>
      <trkpt lat="45.30856" lon="4.59419">
        <ele>640.2</ele>
        <time>2022-05-05T07:49:31.481Z</time>
      </trkpt>
      <trkpt lat="45.30842" lon="4.59393">
        <ele>633.83</ele>
        <time>2022-05-05T07:50:09.000Z</time>
      </trkpt>
      <trkpt lat="45.30832" lon="4.59363">
        <ele>624.05</ele>
        <time>2022-05-05T07:50:43.667Z</time>
      </trkpt>
      <trkpt lat="45.30817" lon="4.5934">
        <ele>623.39</ele>
        <time>2022-05-05T07:51:11.343Z</time>
      </trkpt>
      <trkpt lat="45.30802" lon="4.59315">
        <ele>618.56</ele>
        <time>2022-05-05T07:51:44.064Z</time>
      </trkpt>
      <trkpt lat="45.30789" lon="4.59288">
        <ele>614.9</ele>
        <time>2022-05-05T07:52:14.000Z</time>
      </trkpt>
      <trkpt lat="45.30779" lon="4.59259">
        <ele>611.11</ele>
        <time>2022-05-05T07:52:43.000Z</time>
      </trkpt>
      <trkpt lat="45.30776" lon="4.59226">
        <ele>607.46</ele>
        <time>2022-05-05T07:53:12.686Z</time>
      </trkpt>
      <trkpt lat="45.30772" lon="4.59195">
        <ele>605.9</ele>
        <time>2022-05-05T07:53:41.085Z</time>
      </trkpt>
      <trkpt lat="45.30771" lon="4.59163">
        <ele>604.52</ele>
        <time>2022-05-05T07:54:08.905Z</time>
      </trkpt>
      <trkpt lat="45.30791" lon="4.59146">
        <ele>597.89</ele>
        <time>2022-05-05T07:56:32.000Z</time>
      </trkpt>
      <trkpt lat="45.30799" lon="4.59116">
        <ele>588.89</ele>
        <time>2022-05-05T07:57:07.079Z</time>
      </trkpt>
      <trkpt lat="45.30784" lon="4.59091">
        <ele>575.82</ele>
        <time>2022-05-05T07:57:34.000Z</time>
      </trkpt>
      <trkpt lat="45.30768" lon="4.59068">
        <ele>578.9</ele>
        <time>2022-05-05T07:57:58.840Z</time>
      </trkpt>
      <trkpt lat="45.30753" lon="4.59042">
        <ele>579.39</ele>
        <time>2022-05-05T07:58:26.499Z</time>
      </trkpt>
      <trkpt lat="45.30739" lon="4.59016">
        <ele>577.65</ele>
        <time>2022-05-05T07:58:54.444Z</time>
      </trkpt>
      <trkpt lat="45.30726" lon="4.58989">
        <ele>575.28</ele>
        <time>2022-05-05T07:59:23.122Z</time>
      </trkpt>
      <trkpt lat="45.30713" lon="4.58962">
        <ele>573.36</ele>
        <time>2022-05-05T07:59:50.128Z</time>
      </trkpt>
      <trkpt lat="45.30701" lon="4.58933">
        <ele>574.44</ele>
        <time>2022-05-05T08:00:18.964Z</time>
      </trkpt>
      <trkpt lat="45.30713" lon="4.58905">
        <ele>568.33</ele>
        <time>2022-05-05T08:00:49.120Z</time>
      </trkpt>
      <trkpt lat="45.30702" lon="4.58876">
        <ele>561.75</ele>
        <time>2022-05-05T08:01:24.606Z</time>
      </trkpt>
      <trkpt lat="45.30682" lon="4.58858">
        <ele>556.81</ele>
        <time>2022-05-05T08:01:49.458Z</time>
      </trkpt>
      <trkpt lat="45.30661" lon="4.58846">
        <ele>554.51</ele>
        <time>2022-05-05T08:02:14.000Z</time>
      </trkpt>
      <trkpt lat="45.30641" lon="4.58831">
        <ele>553.66</ele>
        <time>2022-05-05T08:02:36.425Z</time>
      </trkpt>
      <trkpt lat="45.30621" lon="4.58814">
        <ele>556.04</ele>
        <time>2022-05-05T08:03:02.442Z</time>
      </trkpt>
      <trkpt lat="45.306" lon="4.58799">
        <ele>556.69</ele>
        <time>2022-05-05T08:03:28.099Z</time>
      </trkpt>
      <trkpt lat="45.3058" lon="4.58785">
        <ele>556.03</ele>
        <time>2022-05-05T08:03:53.000Z</time>
      </trkpt>
      <trkpt lat="45.30559" lon="4.58771">
        <ele>559.25</ele>
        <time>2022-05-05T08:04:32.022Z</time>
      </trkpt>
      <trkpt lat="45.30538" lon="4.58758">
        <ele>561.95</ele>
        <time>2022-05-05T08:04:57.518Z</time>
      </trkpt>
      <trkpt lat="45.30514" lon="4.58752">
        <ele>555.68</ele>
        <time>2022-05-05T08:05:24.024Z</time>
      </trkpt>
      <trkpt lat="45.30491" lon="4.58745">
        <ele>554.5</ele>
        <time>2022-05-05T08:05:50.623Z</time>
      </trkpt>
      <trkpt lat="45.30468" lon="4.5874">
        <ele>553.23</ele>
        <time>2022-05-05T08:06:15.024Z</time>
      </trkpt>
      <trkpt lat="45.30445" lon="4.58734">
        <ele>546.61</ele>
        <time>2022-05-05T08:06:39.617Z</time>
      </trkpt>
      <trkpt lat="45.30424" lon="4.58719">
        <ele>541.5</ele>
        <time>2022-05-05T08:07:04.037Z</time>
      </trkpt>
      <trkpt lat="45.30409" lon="4.58695">
        <ele>535.97</ele>
        <time>2022-05-05T08:07:31.781Z</time>
      </trkpt>
      <trkpt lat="45.30385" lon="4.58699">
        <ele>541.94</ele>
        <time>2022-05-05T08:07:58.882Z</time>
      </trkpt>
      <trkpt lat="45.30363" lon="4.587">
        <ele>545.06</ele>
        <time>2022-05-05T08:08:22.822Z</time>
      </trkpt>
      <trkpt lat="45.3034" lon="4.587">
        <ele>543.52</ele>
        <time>2022-05-05T08:08:50.585Z</time>
      </trkpt>
      <trkpt lat="45.30317" lon="4.58707">
        <ele>542.09</ele>
        <time>2022-05-05T08:22:23.063Z</time>
      </trkpt>
      <trkpt lat="45.30294" lon="4.58709">
        <ele>537.8</ele>
        <time>2022-05-05T08:22:51.481Z</time>
      </trkpt>
      <trkpt lat="45.30271" lon="4.58714">
        <ele>533.91</ele>
        <time>2022-05-05T08:23:14.162Z</time>
      </trkpt>
      <trkpt lat="45.30249" lon="4.58709">
        <ele>534.92</ele>
        <time>2022-05-05T08:23:38.400Z</time>
      </trkpt>
      <trkpt lat="45.30227" lon="4.58697">
        <ele>537.99</ele>
        <time>2022-05-05T08:24:03.704Z</time>
      </trkpt>
      <trkpt lat="45.30206" lon="4.58681">
        <ele>539.88</ele>
        <time>2022-05-05T08:24:29.584Z</time>
      </trkpt>
      <trkpt lat="45.30186" lon="4.58665">
        <ele>542.12</ele>
        <time>2022-05-05T08:24:56.000Z</time>
      </trkpt>
      <trkpt lat="45.30168" lon="4.58645">
        <ele>541.26</ele>
        <time>2022-05-05T08:25:17.245Z</time>
      </trkpt>
      <trkpt lat="45.30151" lon="4.58624">
        <ele>539.63</ele>
        <time>2022-05-05T08:25:48.101Z</time>
      </trkpt>
      <trkpt lat="45.30135" lon="4.58601">
        <ele>537.76</ele>
        <time>2022-05-05T08:26:10.062Z</time>
      </trkpt>
      <trkpt lat="45.30119" lon="4.58578">
        <ele>533.85</ele>
        <time>2022-05-05T08:26:32.646Z</time>
      </trkpt>
      <trkpt lat="45.30104" lon="4.58551">
        <ele>531.88</ele>
        <time>2022-05-05T08:26:56.039Z</time>
      </trkpt>
      <trkpt lat="45.3009" lon="4.58526">
        <ele>531.61</ele>
        <time>2022-05-05T08:27:17.923Z</time>
      </trkpt>
      <trkpt lat="45.30071" lon="4.58508">
        <ele>528.03</ele>
        <time>2022-05-05T08:27:42.000Z</time>
      </trkpt>
      <trkpt lat="45.30053" lon="4.58484">
        <ele>527.84</ele>
        <time>2022-05-05T08:28:05.898Z</time>
      </trkpt>
      <trkpt lat="45.30039" lon="4.58459">
        <ele>525.88</ele>
        <time>2022-05-05T08:28:29.385Z</time>
      </trkpt>
      <trkpt lat="45.30027" lon="4.58431">
        <ele>523.34</ele>
        <time>2022-05-05T08:28:51.626Z</time>
      </trkpt>
      <trkpt lat="45.30016" lon="4.58404">
        <ele>519.95</ele>
        <time>2022-05-05T08:29:17.000Z</time>
      </trkpt>
      <trkpt lat="45.30003" lon="4.58376">
        <ele>515.32</ele>
        <time>2022-05-05T08:29:42.118Z</time>
      </trkpt>
      <trkpt lat="45.3" lon="4.58344">
        <ele>514.48</ele>
        <time>2022-05-05T08:30:08.000Z</time>
      </trkpt>
      <trkpt lat="45.3" lon="4.58312">
        <ele>514.48</ele>
        <time>2022-05-05T08:30:31.025Z</time>
      </trkpt>
      <trkpt lat="45.29994" lon="4.5828">
        <ele>511.49</ele>
        <time>2022-05-05T08:30:55.820Z</time>
      </trkpt>
      <trkpt lat="45.2999" lon="4.58247">
        <ele>517.38</ele>
        <time>2022-05-05T08:31:20.865Z</time>
      </trkpt>
      <trkpt lat="45.29988" lon="4.58215">
        <ele>514.78</ele>
        <time>2022-05-05T08:31:42.000Z</time>
      </trkpt>
      <trkpt lat="45.29986" lon="4.58183">
        <ele>514.47</ele>
        <time>2022-05-05T08:32:04.000Z</time>
      </trkpt>
      <trkpt lat="45.29968" lon="4.58161">
        <ele>514.47</ele>
        <time>2022-05-05T08:33:40.624Z</time>
      </trkpt>
      <trkpt lat="45.29946" lon="4.58169">
        <ele>508.07</ele>
        <time>2022-05-05T08:34:03.084Z</time>
      </trkpt>
      <trkpt lat="45.29924" lon="4.58179">
        <ele>507.7</ele>
        <time>2022-05-05T08:34:24.499Z</time>
      </trkpt>
      <trkpt lat="45.29901" lon="4.58192">
        <ele>507.07</ele>
        <time>2022-05-05T08:34:47.861Z</time>
      </trkpt>
      <trkpt lat="45.29879" lon="4.5818">
        <ele>507.67</ele>
        <time>2022-05-05T08:35:10.024Z</time>
      </trkpt>
      <trkpt lat="45.29864" lon="4.58155">
        <ele>507.67</ele>
        <time>2022-05-05T08:35:32.503Z</time>
      </trkpt>
      <trkpt lat="45.2986" lon="4.58123">
        <ele>507.67</ele>
        <time>2022-05-05T08:35:58.000Z</time>
      </trkpt>
      <trkpt lat="45.29865" lon="4.58092">
        <ele>507.67</ele>
        <time>2022-05-05T08:36:20.585Z</time>
      </trkpt>
      <trkpt lat="45.29866" lon="4.5806">
        <ele>507.67</ele>
        <time>2022-05-05T08:36:44.659Z</time>
      </trkpt>
      <trkpt lat="45.29868" lon="4.58027">
        <ele>507.67</ele>
        <time>2022-05-05T08:37:06.581Z</time>
      </trkpt>
      <trkpt lat="45.29865" lon="4.57995">
        <ele>505.28</ele>
        <time>2022-05-05T08:37:27.100Z</time>
      </trkpt>
      <trkpt lat="45.29863" lon="4.57961">
        <ele>508.33</ele>
        <time>2022-05-05T08:37:48.619Z</time>
      </trkpt>
      <trkpt lat="45.29859" lon="4.57927">
        <ele>512.44</ele>
        <time>2022-05-05T08:38:08.965Z</time>
      </trkpt>
      <trkpt lat="45.29854" lon="4.57895">
        <ele>511.36</ele>
        <time>2022-05-05T08:38:32.000Z</time>
      </trkpt>
      <trkpt lat="45.29856" lon="4.57863">
        <ele>511.49</ele>
        <time>2022-05-05T08:38:54.000Z</time>
      </trkpt>
      <trkpt lat="45.29848" lon="4.57832">
        <ele>511.2</ele>
        <time>2022-05-05T08:39:19.000Z</time>
      </trkpt>
      <trkpt lat="45.29853" lon="4.57799">
        <ele>511.36</ele>
        <time>2022-05-05T08:39:40.084Z</time>
      </trkpt>
      <trkpt lat="45.29854" lon="4.57766">
        <ele>511.06</ele>
        <time>2022-05-05T08:40:03.025Z</time>
      </trkpt>
      <trkpt lat="45.29848" lon="4.57735">
        <ele>511.06</ele>
        <time>2022-05-05T08:40:26.705Z</time>
      </trkpt>
      <trkpt lat="45.2984" lon="4.57703">
        <ele>511.66</ele>
        <time>2022-05-05T08:40:50.000Z</time>
      </trkpt>
      <trkpt lat="45.29834" lon="4.57671">
        <ele>514.06</ele>
        <time>2022-05-05T08:41:18.504Z</time>
      </trkpt>
      <trkpt lat="45.29831" lon="4.57639">
        <ele>514.06</ele>
        <time>2022-05-05T08:41:43.000Z</time>
      </trkpt>
      <trkpt lat="45.29826" lon="4.57607">
        <ele>516.23</ele>
        <time>2022-05-05T08:42:06.000Z</time>
      </trkpt>
      <trkpt lat="45.29819" lon="4.57576">
        <ele>515.55</ele>
        <time>2022-05-05T08:42:28.525Z</time>
      </trkpt>
      <trkpt lat="45.29809" lon="4.57546">
        <ele>516.77</ele>
        <time>2022-05-05T08:42:50.486Z</time>
      </trkpt>
      <trkpt lat="45.29794" lon="4.57521">
        <ele>514.93</ele>
        <time>2022-05-05T08:43:14.647Z</time>
      </trkpt>
      <trkpt lat="45.29782" lon="4.57492">
        <ele>514.55</ele>
        <time>2022-05-05T08:43:40.104Z</time>
      </trkpt>
      <trkpt lat="45.29773" lon="4.57461">
        <ele>520.85</ele>
        <time>2022-05-05T08:44:00.066Z</time>
      </trkpt>
      <trkpt lat="45.29762" lon="4.57433">
        <ele>520.45</ele>
        <time>2022-05-05T08:44:23.698Z</time>
      </trkpt>
      <trkpt lat="45.29756" lon="4.57402">
        <ele>518.03</ele>
        <time>2022-05-05T08:44:48.799Z</time>
      </trkpt>
      <trkpt lat="45.29736" lon="4.57418">
        <ele>521.76</ele>
        <time>2022-05-05T08:48:15.000Z</time>
      </trkpt>
      <trkpt lat="45.29725" lon="4.5739">
        <ele>530.91</ele>
        <time>2022-05-05T08:49:33.061Z</time>
      </trkpt>
      <trkpt lat="45.29717" lon="4.57359">
        <ele>525.35</ele>
        <time>2022-05-05T08:50:03.000Z</time>
      </trkpt>
      <trkpt lat="45.29709" lon="4.57328">
        <ele>513.85</ele>
        <time>2022-05-05T08:50:28.000Z</time>
      </trkpt>
      <trkpt lat="45.29708" lon="4.57296">
        <ele>533.9</ele>
        <time>2022-05-05T08:50:57.000Z</time>
      </trkpt>
      <trkpt lat="45.29703" lon="4.57264">
        <ele>526.2</ele>
        <time>2022-05-05T08:51:25.564Z</time>
      </trkpt>
      <trkpt lat="45.29691" lon="4.57236">
        <ele>526.95</ele>
        <time>2022-05-05T08:51:47.486Z</time>
      </trkpt>
      <trkpt lat="45.29679" lon="4.57207">
        <ele>526.17</ele>
        <time>2022-05-05T08:52:52.000Z</time>
      </trkpt>
      <trkpt lat="45.29668" lon="4.57178">
        <ele>527.72</ele>
        <time>2022-05-05T08:53:09.545Z</time>
      </trkpt>
      <trkpt lat="45.29657" lon="4.5715">
        <ele>531.25</ele>
        <time>2022-05-05T08:53:29.000Z</time>
      </trkpt>
      <trkpt lat="45.29649" lon="4.5712">
        <ele>522.84</ele>
        <time>2022-05-05T08:53:52.621Z</time>
      </trkpt>
      <trkpt lat="45.29635" lon="4.57093">
        <ele>522.84</ele>
        <time>2022-05-05T08:54:16.542Z</time>
      </trkpt>
      <trkpt lat="45.2962" lon="4.57067">
        <ele>522.84</ele>
        <time>2022-05-05T08:54:37.580Z</time>
      </trkpt>
      <trkpt lat="45.29605" lon="4.57044">
        <ele>522.84</ele>
        <time>2022-05-05T08:55:00.606Z</time>
      </trkpt>
      <trkpt lat="45.29594" lon="4.57015">
        <ele>520.73</ele>
        <time>2022-05-05T08:55:23.661Z</time>
      </trkpt>
      <trkpt lat="45.29583" lon="4.56987">
        <ele>525.9</ele>
        <time>2022-05-05T08:55:43.605Z</time>
      </trkpt>
      <trkpt lat="45.29567" lon="4.56964">
        <ele>524.93</ele>
        <time>2022-05-05T08:56:05.019Z</time>
      </trkpt>
      <trkpt lat="45.29547" lon="4.56951">
        <ele>525.94</ele>
        <time>2022-05-05T08:56:26.738Z</time>
      </trkpt>
      <trkpt lat="45.29527" lon="4.56936">
        <ele>525.94</ele>
        <time>2022-05-05T08:56:51.562Z</time>
      </trkpt>
      <trkpt lat="45.29518" lon="4.56906">
        <ele>525.93</ele>
        <time>2022-05-05T08:57:14.665Z</time>
      </trkpt>
      <trkpt lat="45.29503" lon="4.56881">
        <ele>527.53</ele>
        <time>2022-05-05T08:57:41.000Z</time>
      </trkpt>
      <trkpt lat="45.29495" lon="4.5685">
        <ele>527.53</ele>
        <time>2022-05-05T08:58:03.659Z</time>
      </trkpt>
      <trkpt lat="45.29489" lon="4.56818">
        <ele>524.06</ele>
        <time>2022-05-05T08:58:24.725Z</time>
      </trkpt>
      <trkpt lat="45.29482" lon="4.56785">
        <ele>524.58</ele>
        <time>2022-05-05T08:58:54.659Z</time>
      </trkpt>
      <trkpt lat="45.29478" lon="4.56753">
        <ele>529.63</ele>
        <time>2022-05-05T08:59:19.483Z</time>
      </trkpt>
      <trkpt lat="45.29479" lon="4.56721">
        <ele>528.33</ele>
        <time>2022-05-05T08:59:53.000Z</time>
      </trkpt>
      <trkpt lat="45.2949" lon="4.56693">
        <ele>528.35</ele>
        <time>2022-05-05T09:00:17.000Z</time>
      </trkpt>
      <trkpt lat="45.29507" lon="4.56671">
        <ele>524.81</ele>
        <time>2022-05-05T09:00:50.101Z</time>
      </trkpt>
      <trkpt lat="45.29525" lon="4.56652">
        <ele>524.99</ele>
        <time>2022-05-05T09:01:10.525Z</time>
      </trkpt>
      <trkpt lat="45.29545" lon="4.56636">
        <ele>527.16</ele>
        <time>2022-05-05T09:01:30.985Z</time>
      </trkpt>
      <trkpt lat="45.29565" lon="4.56622">
        <ele>527.52</ele>
        <time>2022-05-05T09:01:53.000Z</time>
      </trkpt>
      <trkpt lat="45.29585" lon="4.56605">
        <ele>527.22</ele>
        <time>2022-05-05T09:02:15.000Z</time>
      </trkpt>
      <trkpt lat="45.29601" lon="4.56582">
        <ele>528.73</ele>
        <time>2022-05-05T09:02:38.480Z</time>
      </trkpt>
      <trkpt lat="45.29602" lon="4.56547">
        <ele>529.72</ele>
        <time>2022-05-05T09:03:01.622Z</time>
      </trkpt>
      <trkpt lat="45.29603" lon="4.56515">
        <ele>530.87</ele>
        <time>2022-05-05T09:03:36.080Z</time>
      </trkpt>
      <trkpt lat="45.29594" lon="4.56485">
        <ele>530.92</ele>
        <time>2022-05-05T09:04:08.000Z</time>
      </trkpt>
      <trkpt lat="45.29583" lon="4.56455">
        <ele>533.92</ele>
        <time>2022-05-05T09:04:35.621Z</time>
      </trkpt>
      <trkpt lat="45.29572" lon="4.56427">
        <ele>528.05</ele>
        <time>2022-05-05T09:05:01.000Z</time>
      </trkpt>
      <trkpt lat="45.29562" lon="4.56395">
        <ele>533.92</ele>
        <time>2022-05-05T09:05:23.000Z</time>
      </trkpt>
      <trkpt lat="45.29556" lon="4.56364">
        <ele>534.12</ele>
        <time>2022-05-05T09:05:43.941Z</time>
      </trkpt>
      <trkpt lat="45.29554" lon="4.56332">
        <ele>534.32</ele>
        <time>2022-05-05T09:06:10.647Z</time>
      </trkpt>
      <trkpt lat="45.29559" lon="4.56301">
        <ele>536.12</ele>
        <time>2022-05-05T09:06:32.078Z</time>
      </trkpt>
      <trkpt lat="45.29568" lon="4.56271">
        <ele>538.01</ele>
        <time>2022-05-05T09:06:55.105Z</time>
      </trkpt>
      <trkpt lat="45.29582" lon="4.56245">
        <ele>538.61</ele>
        <time>2022-05-05T09:07:16.739Z</time>
      </trkpt>
      <trkpt lat="45.29603" lon="4.56229">
        <ele>539.04</ele>
        <time>2022-05-05T09:07:41.542Z</time>
      </trkpt>
      <trkpt lat="45.29624" lon="4.56213">
        <ele>540.01</ele>
        <time>2022-05-05T09:08:03.502Z</time>
      </trkpt>
      <trkpt lat="45.29642" lon="4.56193">
        <ele>540.04</ele>
        <time>2022-05-05T09:08:32.426Z</time>
      </trkpt>
      <trkpt lat="45.29647" lon="4.56162">
        <ele>540.11</ele>
        <time>2022-05-05T09:09:33.000Z</time>
      </trkpt>
      <trkpt lat="45.2966" lon="4.56135">
        <ele>540.11</ele>
        <time>2022-05-05T09:13:47.063Z</time>
      </trkpt>
      <trkpt lat="45.29663" lon="4.56102">
        <ele>540.02</ele>
        <time>2022-05-05T09:14:11.000Z</time>
      </trkpt>
      <trkpt lat="45.29674" lon="4.56074">
        <ele>540.01</ele>
        <time>2022-05-05T09:14:31.129Z</time>
      </trkpt>
      <trkpt lat="45.29688" lon="4.56048">
        <ele>540.91</ele>
        <time>2022-05-05T09:14:56.000Z</time>
      </trkpt>
      <trkpt lat="45.29688" lon="4.56015">
        <ele>542.11</ele>
        <time>2022-05-05T09:15:30.859Z</time>
      </trkpt>
      <trkpt lat="45.29682" lon="4.56046">
        <ele>540.42</ele>
        <time>2022-05-05T09:37:19.060Z</time>
      </trkpt>
      <trkpt lat="45.2966" lon="4.56039">
        <ele>539.71</ele>
        <time>2022-05-05T09:37:50.081Z</time>
      </trkpt>
      <trkpt lat="45.29644" lon="4.56014">
        <ele>540.08</ele>
        <time>2022-05-05T09:38:13.782Z</time>
      </trkpt>
      <trkpt lat="45.29635" lon="4.55984">
        <ele>540.71</ele>
        <time>2022-05-05T09:38:52.844Z</time>
      </trkpt>
      <trkpt lat="45.29631" lon="4.55952">
        <ele>540.86</ele>
        <time>2022-05-05T09:40:49.745Z</time>
      </trkpt>
      <trkpt lat="45.29642" lon="4.55985">
        <ele>540.48</ele>
        <time>2022-05-05T09:47:52.000Z</time>
      </trkpt>
      <trkpt lat="45.29618" lon="4.55979">
        <ele>541.51</ele>
        <time>2022-05-05T09:49:43.619Z</time>
      </trkpt>
      <trkpt lat="45.2961" lon="4.55949">
        <ele>542.11</ele>
        <time>2022-05-05T09:50:09.085Z</time>
      </trkpt>
      <trkpt lat="45.29594" lon="4.55926">
        <ele>542.41</ele>
        <time>2022-05-05T09:50:37.000Z</time>
      </trkpt>
      <trkpt lat="45.29574" lon="4.5591">
        <ele>542.1</ele>
        <time>2022-05-05T09:51:06.240Z</time>
      </trkpt>
      <trkpt lat="45.29558" lon="4.55887">
        <ele>542.8</ele>
        <time>2022-05-05T09:51:31.640Z</time>
      </trkpt>
      <trkpt lat="45.29544" lon="4.55861">
        <ele>544.9</ele>
        <time>2022-05-05T09:52:02.000Z</time>
      </trkpt>
      <trkpt lat="45.29529" lon="4.55834">
        <ele>544.9</ele>
        <time>2022-05-05T09:52:22.625Z</time>
      </trkpt>
      <trkpt lat="45.29516" lon="4.55807">
        <ele>544.9</ele>
        <time>2022-05-05T09:52:47.000Z</time>
      </trkpt>
      <trkpt lat="45.29498" lon="4.55788">
        <ele>547.19</ele>
        <time>2022-05-05T09:53:10.000Z</time>
      </trkpt>
      <trkpt lat="45.29479" lon="4.5577">
        <ele>544.4</ele>
        <time>2022-05-05T09:53:31.564Z</time>
      </trkpt>
      <trkpt lat="45.29462" lon="4.55747">
        <ele>542.7</ele>
        <time>2022-05-05T09:53:50.903Z</time>
      </trkpt>
      <trkpt lat="45.29446" lon="4.55723">
        <ele>542.65</ele>
        <time>2022-05-05T09:54:12.442Z</time>
      </trkpt>
      <trkpt lat="45.29428" lon="4.55704">
        <ele>542.7</ele>
        <time>2022-05-05T09:54:38.102Z</time>
      </trkpt>
      <trkpt lat="45.29412" lon="4.55681">
        <ele>543</ele>
        <time>2022-05-05T09:55:00.000Z</time>
      </trkpt>
      <trkpt lat="45.29391" lon="4.55666">
        <ele>544.19</ele>
        <time>2022-05-05T09:55:24.000Z</time>
      </trkpt>
      <trkpt lat="45.29384" lon="4.55636">
        <ele>544.39</ele>
        <time>2022-05-05T09:55:51.000Z</time>
      </trkpt>
      <trkpt lat="45.29373" lon="4.55607">
        <ele>542.99</ele>
        <time>2022-05-05T09:56:11.117Z</time>
      </trkpt>
      <trkpt lat="45.29362" lon="4.55579">
        <ele>544.58</ele>
        <time>2022-05-05T09:56:31.000Z</time>
      </trkpt>
      <trkpt lat="45.29348" lon="4.55553">
        <ele>549.89</ele>
        <time>2022-05-05T09:56:53.121Z</time>
      </trkpt>
      <trkpt lat="45.29333" lon="4.55528">
        <ele>550.27</ele>
        <time>2022-05-05T09:57:28.684Z</time>
      </trkpt>
      <trkpt lat="45.2932" lon="4.55502">
        <ele>550.89</ele>
        <time>2022-05-05T09:57:48.619Z</time>
      </trkpt>
      <trkpt lat="45.29298" lon="4.5549">
        <ele>552.24</ele>
        <time>2022-05-05T09:58:13.704Z</time>
      </trkpt>
      <trkpt lat="45.29277" lon="4.55475">
        <ele>552.69</ele>
        <time>2022-05-05T09:58:50.758Z</time>
      </trkpt>
      <trkpt lat="45.29255" lon="4.55474">
        <ele>549.39</ele>
        <time>2022-05-05T09:59:13.027Z</time>
      </trkpt>
      <trkpt lat="45.29232" lon="4.55471">
        <ele>549.69</ele>
        <time>2022-05-05T09:59:44.586Z</time>
      </trkpt>
      <trkpt lat="45.29208" lon="4.55471">
        <ele>549.79</ele>
        <time>2022-05-05T10:00:05.041Z</time>
      </trkpt>
      <trkpt lat="45.29186" lon="4.55472">
        <ele>549.69</ele>
        <time>2022-05-05T10:00:27.962Z</time>
      </trkpt>
      <trkpt lat="45.29163" lon="4.55474">
        <ele>550.98</ele>
        <time>2022-05-05T10:00:51.539Z</time>
      </trkpt>
      <trkpt lat="45.2914" lon="4.55472">
        <ele>551.74</ele>
        <time>2022-05-05T10:01:15.000Z</time>
      </trkpt>
      <trkpt lat="45.29117" lon="4.5547">
        <ele>538.06</ele>
        <time>2022-05-05T10:01:38.805Z</time>
      </trkpt>
      <trkpt lat="45.29094" lon="4.55463">
        <ele>539.81</ele>
        <time>2022-05-05T10:02:04.925Z</time>
      </trkpt>
      <trkpt lat="45.29071" lon="4.55461">
        <ele>554.88</ele>
        <time>2022-05-05T10:02:30.759Z</time>
      </trkpt>
      <trkpt lat="45.2905" lon="4.55472">
        <ele>554.88</ele>
        <time>2022-05-05T10:02:55.642Z</time>
      </trkpt>
      <trkpt lat="45.29027" lon="4.55482">
        <ele>540.59</ele>
        <time>2022-05-05T10:03:20.485Z</time>
      </trkpt>
      <trkpt lat="45.29004" lon="4.5548">
        <ele>542.39</ele>
        <time>2022-05-05T10:03:43.744Z</time>
      </trkpt>
      <trkpt lat="45.28987" lon="4.55458">
        <ele>556.19</ele>
        <time>2022-05-05T10:04:07.598Z</time>
      </trkpt>
      <trkpt lat="45.28975" lon="4.55429">
        <ele>550.12</ele>
        <time>2022-05-05T10:04:31.059Z</time>
      </trkpt>
      <trkpt lat="45.28966" lon="4.55399">
        <ele>551.02</ele>
        <time>2022-05-05T10:04:53.578Z</time>
      </trkpt>
      <trkpt lat="45.2896" lon="4.55369">
        <ele>550.65</ele>
        <time>2022-05-05T10:05:19.000Z</time>
      </trkpt>
      <trkpt lat="45.28954" lon="4.55337">
        <ele>564.17</ele>
        <time>2022-05-05T10:06:02.740Z</time>
      </trkpt>
      <trkpt lat="45.28943" lon="4.55309">
        <ele>560.77</ele>
        <time>2022-05-05T10:06:55.780Z</time>
      </trkpt>
      <trkpt lat="45.28927" lon="4.55286">
        <ele>562.24</ele>
        <time>2022-05-05T10:07:29.001Z</time>
      </trkpt>
      <trkpt lat="45.28914" lon="4.5526">
        <ele>558.52</ele>
        <time>2022-05-05T10:08:11.000Z</time>
      </trkpt>
      <trkpt lat="45.28895" lon="4.55241">
        <ele>558.8</ele>
        <time>2022-05-05T10:08:35.481Z</time>
      </trkpt>
      <trkpt lat="45.28877" lon="4.55223">
        <ele>558.74</ele>
        <time>2022-05-05T10:09:03.000Z</time>
      </trkpt>
      <trkpt lat="45.28858" lon="4.55203">
        <ele>555.93</ele>
        <time>2022-05-05T10:09:27.023Z</time>
      </trkpt>
      <trkpt lat="45.28841" lon="4.55182">
        <ele>558.23</ele>
        <time>2022-05-05T10:09:51.464Z</time>
      </trkpt>
      <trkpt lat="45.28821" lon="4.55167">
        <ele>555.39</ele>
        <time>2022-05-05T10:10:24.000Z</time>
      </trkpt>
      <trkpt lat="45.28798" lon="4.55163">
        <ele>558.47</ele>
        <time>2022-05-05T10:10:48.605Z</time>
      </trkpt>
      <trkpt lat="45.28779" lon="4.55145">
        <ele>563.29</ele>
        <time>2022-05-05T10:13:09.505Z</time>
      </trkpt>
      <trkpt lat="45.28762" lon="4.55123">
        <ele>563.96</ele>
        <time>2022-05-05T10:13:35.821Z</time>
      </trkpt>
      <trkpt lat="45.28743" lon="4.55105">
        <ele>565.29</ele>
        <time>2022-05-05T10:14:04.000Z</time>
      </trkpt>
      <trkpt lat="45.28725" lon="4.55082">
        <ele>576.19</ele>
        <time>2022-05-05T10:14:23.000Z</time>
      </trkpt>
      <trkpt lat="45.28705" lon="4.55066">
        <ele>579.68</ele>
        <time>2022-05-05T10:15:14.861Z</time>
      </trkpt>
      <trkpt lat="45.28683" lon="4.55056">
        <ele>569.48</ele>
        <time>2022-05-05T10:15:51.000Z</time>
      </trkpt>
      <trkpt lat="45.28659" lon="4.55047">
        <ele>567.51</ele>
        <time>2022-05-05T10:16:31.000Z</time>
      </trkpt>
      <trkpt lat="45.28638" lon="4.5504">
        <ele>570.26</ele>
        <time>2022-05-05T10:17:02.779Z</time>
      </trkpt>
      <trkpt lat="45.28616" lon="4.55025">
        <ele>583.02</ele>
        <time>2022-05-05T10:17:31.000Z</time>
      </trkpt>
      <trkpt lat="45.28597" lon="4.55006">
        <ele>585.83</ele>
        <time>2022-05-05T10:18:03.000Z</time>
      </trkpt>
      <trkpt lat="45.28582" lon="4.54982">
        <ele>587.17</ele>
        <time>2022-05-05T10:19:22.000Z</time>
      </trkpt>
      <trkpt lat="45.28571" lon="4.54954">
        <ele>590.38</ele>
        <time>2022-05-05T10:20:31.000Z</time>
      </trkpt>
      <trkpt lat="45.2856" lon="4.54925">
        <ele>591.62</ele>
        <time>2022-05-05T10:20:56.839Z</time>
      </trkpt>
      <trkpt lat="45.28551" lon="4.54895">
        <ele>595.92</ele>
        <time>2022-05-05T10:21:28.801Z</time>
      </trkpt>
      <trkpt lat="45.2855" lon="4.54862">
        <ele>572.44</ele>
        <time>2022-05-05T10:22:13.000Z</time>
      </trkpt>
      <trkpt lat="45.28534" lon="4.54839">
        <ele>565.22</ele>
        <time>2022-05-05T10:22:43.987Z</time>
      </trkpt>
      <trkpt lat="45.28541" lon="4.5487">
        <ele>604.67</ele>
        <time>2022-05-05T10:24:09.778Z</time>
      </trkpt>
      <trkpt lat="45.28558" lon="4.54849">
        <ele>614.1</ele>
        <time>2022-05-05T10:24:38.000Z</time>
      </trkpt>
      <trkpt lat="45.28574" lon="4.54825">
        <ele>605.02</ele>
        <time>2022-05-05T10:24:57.977Z</time>
      </trkpt>
      <trkpt lat="45.28586" lon="4.54797">
        <ele>608.01</ele>
        <time>2022-05-05T10:25:25.000Z</time>
      </trkpt>
      <trkpt lat="45.28587" lon="4.54765">
        <ele>608.28</ele>
        <time>2022-05-05T10:25:51.000Z</time>
      </trkpt>
      <trkpt lat="45.28578" lon="4.54735">
        <ele>573.94</ele>
        <time>2022-05-05T10:26:28.679Z</time>
      </trkpt>
      <trkpt lat="45.28575" lon="4.54702">
        <ele>572.86</ele>
        <time>2022-05-05T10:26:58.000Z</time>
      </trkpt>
      <trkpt lat="45.28566" lon="4.54672">
        <ele>573.55</ele>
        <time>2022-05-05T10:27:24.582Z</time>
      </trkpt>
      <trkpt lat="45.28551" lon="4.54648">
        <ele>573.15</ele>
        <time>2022-05-05T10:27:51.000Z</time>
      </trkpt>
      <trkpt lat="45.28542" lon="4.54618">
        <ele>574.95</ele>
        <time>2022-05-05T10:28:17.000Z</time>
      </trkpt>
      <trkpt lat="45.28533" lon="4.54587">
        <ele>573.55</ele>
        <time>2022-05-05T10:28:45.985Z</time>
      </trkpt>
      <trkpt lat="45.28524" lon="4.54556">
        <ele>609.44</ele>
        <time>2022-05-05T10:29:38.844Z</time>
      </trkpt>
      <trkpt lat="45.28514" lon="4.54527">
        <ele>614.34</ele>
        <time>2022-05-05T10:30:03.842Z</time>
      </trkpt>
      <trkpt lat="45.28501" lon="4.54501">
        <ele>615.49</ele>
        <time>2022-05-05T10:30:40.646Z</time>
      </trkpt>
      <trkpt lat="45.28493" lon="4.5447">
        <ele>614.83</ele>
        <time>2022-05-05T10:31:06.000Z</time>
      </trkpt>
      <trkpt lat="45.285" lon="4.54439">
        <ele>619.42</ele>
        <time>2022-05-05T10:31:42.000Z</time>
      </trkpt>
      <trkpt lat="45.28497" lon="4.54407">
        <ele>619.33</ele>
        <time>2022-05-05T10:32:12.000Z</time>
      </trkpt>
      <trkpt lat="45.28484" lon="4.54378">
        <ele>618.67</ele>
        <time>2022-05-05T10:32:40.679Z</time>
      </trkpt>
      <trkpt lat="45.28477" lon="4.54347">
        <ele>622.68</ele>
        <time>2022-05-05T10:33:08.924Z</time>
      </trkpt>
      <trkpt lat="45.28467" lon="4.54317">
        <ele>632.39</ele>
        <time>2022-05-05T10:33:37.000Z</time>
      </trkpt>
      <trkpt lat="45.28454" lon="4.54291">
        <ele>634.34</ele>
        <time>2022-05-05T10:33:56.000Z</time>
      </trkpt>
      <trkpt lat="45.28443" lon="4.54263">
        <ele>633.66</ele>
        <time>2022-05-05T10:34:49.118Z</time>
      </trkpt>
      <trkpt lat="45.28429" lon="4.54238">
        <ele>640.98</ele>
        <time>2022-05-05T10:35:26.000Z</time>
      </trkpt>
      <trkpt lat="45.2842" lon="4.54208">
        <ele>647.92</ele>
        <time>2022-05-05T10:36:15.000Z</time>
      </trkpt>
      <trkpt lat="45.28401" lon="4.5419">
        <ele>647.94</ele>
        <time>2022-05-05T10:36:49.000Z</time>
      </trkpt>
      <trkpt lat="45.28387" lon="4.54165">
        <ele>654.37</ele>
        <time>2022-05-05T10:38:39.701Z</time>
      </trkpt>
      <trkpt lat="45.28371" lon="4.5414">
        <ele>649.54</ele>
        <time>2022-05-05T10:39:12.999Z</time>
      </trkpt>
      <trkpt lat="45.28359" lon="4.54113">
        <ele>644.66</ele>
        <time>2022-05-05T10:39:49.000Z</time>
      </trkpt>
      <trkpt lat="45.28339" lon="4.54097">
        <ele>653.29</ele>
        <time>2022-05-05T10:40:14.919Z</time>
      </trkpt>
      <trkpt lat="45.28321" lon="4.54077">
        <ele>655.72</ele>
        <time>2022-05-05T10:40:58.959Z</time>
      </trkpt>
      <trkpt lat="45.28309" lon="4.54051">
        <ele>651.15</ele>
        <time>2022-05-05T10:42:37.000Z</time>
      </trkpt>
      <trkpt lat="45.28285" lon="4.54047">
        <ele>654.82</ele>
        <time>2022-05-05T10:43:21.000Z</time>
      </trkpt>
      <trkpt lat="45.28263" lon="4.54034">
        <ele>652.47</ele>
        <time>2022-05-05T10:44:01.944Z</time>
      </trkpt>
      <trkpt lat="45.28248" lon="4.5401">
        <ele>648.63</ele>
        <time>2022-05-05T10:44:31.938Z</time>
      </trkpt>
      <trkpt lat="45.28226" lon="4.53999">
        <ele>642.84</ele>
        <time>2022-05-05T10:45:00.000Z</time>
      </trkpt>
      <trkpt lat="45.28206" lon="4.53982">
        <ele>657.55</ele>
        <time>2022-05-05T10:45:19.000Z</time>
      </trkpt>
      <trkpt lat="45.28183" lon="4.53976">
        <ele>663.11</ele>
        <time>2022-05-05T10:45:37.000Z</time>
      </trkpt>
      <trkpt lat="45.28161" lon="4.53967">
        <ele>674.87</ele>
        <time>2022-05-05T10:46:08.663Z</time>
      </trkpt>
      <trkpt lat="45.28142" lon="4.5395">
        <ele>671.15</ele>
        <time>2022-05-05T10:47:43.544Z</time>
      </trkpt>
      <trkpt lat="45.28134" lon="4.53918">
        <ele>671.38</ele>
        <time>2022-05-05T10:48:14.517Z</time>
      </trkpt>
      <trkpt lat="45.28118" lon="4.53892">
        <ele>667.45</ele>
        <time>2022-05-05T10:48:46.000Z</time>
      </trkpt>
      <trkpt lat="45.28103" lon="4.53868">
        <ele>669.01</ele>
        <time>2022-05-05T10:49:13.639Z</time>
      </trkpt>
      <trkpt lat="45.2809" lon="4.5384">
        <ele>670.51</ele>
        <time>2022-05-05T10:49:41.000Z</time>
      </trkpt>
      <trkpt lat="45.28074" lon="4.53817">
        <ele>672.98</ele>
        <time>2022-05-05T10:50:05.000Z</time>
      </trkpt>
      <trkpt lat="45.28054" lon="4.53801">
        <ele>671.46</ele>
        <time>2022-05-05T10:50:33.658Z</time>
      </trkpt>
      <trkpt lat="45.28031" lon="4.53796">
        <ele>673.11</ele>
        <time>2022-05-05T10:51:02.623Z</time>
      </trkpt>
      <trkpt lat="45.28009" lon="4.53802">
        <ele>672.44</ele>
        <time>2022-05-05T10:51:38.745Z</time>
      </trkpt>
      <trkpt lat="45.27986" lon="4.53812">
        <ele>673.77</ele>
        <time>2022-05-05T10:52:04.599Z</time>
      </trkpt>
      <trkpt lat="45.27966" lon="4.53828">
        <ele>676.84</ele>
        <time>2022-05-05T10:52:32.000Z</time>
      </trkpt>
      <trkpt lat="45.27946" lon="4.53842">
        <ele>678.85</ele>
        <time>2022-05-05T10:52:59.080Z</time>
      </trkpt>
      <trkpt lat="45.27928" lon="4.53865">
        <ele>673.23</ele>
        <time>2022-05-05T10:53:27.000Z</time>
      </trkpt>
      <trkpt lat="45.27905" lon="4.53869">
        <ele>676.07</ele>
        <time>2022-05-05T10:53:56.858Z</time>
      </trkpt>
      <trkpt lat="45.27887" lon="4.5389">
        <ele>679.15</ele>
        <time>2022-05-05T10:54:47.000Z</time>
      </trkpt>
      <trkpt lat="45.27884" lon="4.53922">
        <ele>677.29</ele>
        <time>2022-05-05T10:55:43.000Z</time>
      </trkpt>
      <trkpt lat="45.27867" lon="4.53944">
        <ele>677.75</ele>
        <time>2022-05-05T10:58:02.985Z</time>
      </trkpt>
      <trkpt lat="45.2785" lon="4.53966">
        <ele>678.33</ele>
        <time>2022-05-05T11:26:11.784Z</time>
      </trkpt>
      <trkpt lat="45.27837" lon="4.53993">
        <ele>680.36</ele>
        <time>2022-05-05T11:26:37.647Z</time>
      </trkpt>
      <trkpt lat="45.27822" lon="4.54017">
        <ele>674.72</ele>
        <time>2022-05-05T11:27:24.000Z</time>
      </trkpt>
      <trkpt lat="45.27803" lon="4.54036">
        <ele>678.1</ele>
        <time>2022-05-05T11:27:58.801Z</time>
      </trkpt>
      <trkpt lat="45.27799" lon="4.54069">
        <ele>686.62</ele>
        <time>2022-05-05T11:28:29.062Z</time>
      </trkpt>
      <trkpt lat="45.27812" lon="4.54096">
        <ele>695.14</ele>
        <time>2022-05-05T11:29:08.107Z</time>
      </trkpt>
      <trkpt lat="45.27808" lon="4.54127">
        <ele>694.43</ele>
        <time>2022-05-05T11:30:16.078Z</time>
      </trkpt>
      <trkpt lat="45.27792" lon="4.54152">
        <ele>694.55</ele>
        <time>2022-05-05T11:30:49.099Z</time>
      </trkpt>
      <trkpt lat="45.2777" lon="4.54145">
        <ele>684.52</ele>
        <time>2022-05-05T11:31:22.581Z</time>
      </trkpt>
      <trkpt lat="45.27748" lon="4.54131">
        <ele>686.66</ele>
        <time>2022-05-05T11:31:46.781Z</time>
      </trkpt>
      <trkpt lat="45.27728" lon="4.54114">
        <ele>692.8</ele>
        <time>2022-05-05T11:32:13.644Z</time>
      </trkpt>
      <trkpt lat="45.2771" lon="4.54094">
        <ele>692.87</ele>
        <time>2022-05-05T11:32:37.662Z</time>
      </trkpt>
      <trkpt lat="45.27694" lon="4.5407">
        <ele>692.23</ele>
        <time>2022-05-05T11:33:01.767Z</time>
      </trkpt>
      <trkpt lat="45.27678" lon="4.54048">
        <ele>693.28</ele>
        <time>2022-05-05T11:33:29.000Z</time>
      </trkpt>
      <trkpt lat="45.2766" lon="4.54026">
        <ele>695.2</ele>
        <time>2022-05-05T11:33:54.646Z</time>
      </trkpt>
      <trkpt lat="45.27649" lon="4.53996">
        <ele>699.6</ele>
        <time>2022-05-05T11:34:19.000Z</time>
      </trkpt>
      <trkpt lat="45.2764" lon="4.53966">
        <ele>696.83</ele>
        <time>2022-05-05T11:34:45.000Z</time>
      </trkpt>
      <trkpt lat="45.2763" lon="4.53936">
        <ele>695.94</ele>
        <time>2022-05-05T11:35:17.624Z</time>
      </trkpt>
      <trkpt lat="45.27621" lon="4.53906">
        <ele>700.41</ele>
        <time>2022-05-05T11:35:45.706Z</time>
      </trkpt>
      <trkpt lat="45.27614" lon="4.53873">
        <ele>699.27</ele>
        <time>2022-05-05T11:36:18.727Z</time>
      </trkpt>
      <trkpt lat="45.2761" lon="4.53842">
        <ele>706.1</ele>
        <time>2022-05-05T11:36:43.658Z</time>
      </trkpt>
      <trkpt lat="45.27606" lon="4.53809">
        <ele>704.19</ele>
        <time>2022-05-05T11:37:14.000Z</time>
      </trkpt>
      <trkpt lat="45.27604" lon="4.53777">
        <ele>708.38</ele>
        <time>2022-05-05T11:37:36.000Z</time>
      </trkpt>
      <trkpt lat="45.27603" lon="4.53745">
        <ele>707.39</ele>
        <time>2022-05-05T11:38:02.526Z</time>
      </trkpt>
      <trkpt lat="45.27599" lon="4.53712">
        <ele>704.73</ele>
        <time>2022-05-05T11:38:40.907Z</time>
      </trkpt>
      <trkpt lat="45.27599" lon="4.5368">
        <ele>704.43</ele>
        <time>2022-05-05T11:39:05.386Z</time>
      </trkpt>
      <trkpt lat="45.27611" lon="4.53653">
        <ele>703.26</ele>
        <time>2022-05-05T11:39:47.065Z</time>
      </trkpt>
      <trkpt lat="45.27624" lon="4.53625">
        <ele>703.95</ele>
        <time>2022-05-05T11:40:10.601Z</time>
      </trkpt>
      <trkpt lat="45.27634" lon="4.53597">
        <ele>705.23</ele>
        <time>2022-05-05T11:40:36.627Z</time>
      </trkpt>
      <trkpt lat="45.27634" lon="4.53565">
        <ele>706.21</ele>
        <time>2022-05-05T11:41:03.108Z</time>
      </trkpt>
      <trkpt lat="45.27622" lon="4.53538">
        <ele>710.16</ele>
        <time>2022-05-05T11:41:29.000Z</time>
      </trkpt>
      <trkpt lat="45.27609" lon="4.5351">
        <ele>708.85</ele>
        <time>2022-05-05T11:42:12.643Z</time>
      </trkpt>
      <trkpt lat="45.27608" lon="4.53478">
        <ele>711.51</ele>
        <time>2022-05-05T11:42:34.606Z</time>
      </trkpt>
      <trkpt lat="45.27623" lon="4.53452">
        <ele>715.42</ele>
        <time>2022-05-05T11:43:00.642Z</time>
      </trkpt>
      <trkpt lat="45.27638" lon="4.53428">
        <ele>714.02</ele>
        <time>2022-05-05T11:43:28.839Z</time>
      </trkpt>
      <trkpt lat="45.27649" lon="4.534">
        <ele>715.92</ele>
        <time>2022-05-05T11:44:08.701Z</time>
      </trkpt>
      <trkpt lat="45.27658" lon="4.5337">
        <ele>717.46</ele>
        <time>2022-05-05T11:44:31.942Z</time>
      </trkpt>
      <trkpt lat="45.27662" lon="4.53338">
        <ele>718.13</ele>
        <time>2022-05-05T11:44:56.459Z</time>
      </trkpt>
      <trkpt lat="45.27665" lon="4.53306">
        <ele>715.6</ele>
        <time>2022-05-05T11:45:21.707Z</time>
      </trkpt>
      <trkpt lat="45.27665" lon="4.53273">
        <ele>713.03</ele>
        <time>2022-05-05T11:45:46.359Z</time>
      </trkpt>
      <trkpt lat="45.27649" lon="4.53248">
        <ele>712.78</ele>
        <time>2022-05-05T11:46:10.523Z</time>
      </trkpt>
      <trkpt lat="45.27628" lon="4.53233">
        <ele>711.63</ele>
        <time>2022-05-05T11:46:37.625Z</time>
      </trkpt>
      <trkpt lat="45.27606" lon="4.53224">
        <ele>716.47</ele>
        <time>2022-05-05T11:47:17.639Z</time>
      </trkpt>
      <trkpt lat="45.27587" lon="4.53207">
        <ele>720.44</ele>
        <time>2022-05-05T11:47:42.859Z</time>
      </trkpt>
      <trkpt lat="45.27571" lon="4.53184">
        <ele>719.29</ele>
        <time>2022-05-05T11:48:06.378Z</time>
      </trkpt>
      <trkpt lat="45.27556" lon="4.5316">
        <ele>717.12</ele>
        <time>2022-05-05T11:48:32.000Z</time>
      </trkpt>
      <trkpt lat="45.27534" lon="4.53153">
        <ele>719.75</ele>
        <time>2022-05-05T11:48:55.626Z</time>
      </trkpt>
      <trkpt lat="45.27511" lon="4.53158">
        <ele>720.38</ele>
        <time>2022-05-05T11:49:31.778Z</time>
      </trkpt>
      <trkpt lat="45.27488" lon="4.53164">
        <ele>719.98</ele>
        <time>2022-05-05T11:50:22.660Z</time>
      </trkpt>
      <trkpt lat="45.27467" lon="4.53178">
        <ele>717.02</ele>
        <time>2022-05-05T11:50:49.686Z</time>
      </trkpt>
      <trkpt lat="45.27452" lon="4.53202">
        <ele>723.48</ele>
        <time>2022-05-05T11:51:14.000Z</time>
      </trkpt>
      <trkpt lat="45.27437" lon="4.53227">
        <ele>720.8</ele>
        <time>2022-05-05T11:51:37.703Z</time>
      </trkpt>
      <trkpt lat="45.2742" lon="4.53248">
        <ele>725.23</ele>
        <time>2022-05-05T11:52:02.020Z</time>
      </trkpt>
      <trkpt lat="45.27398" lon="4.53261">
        <ele>725.99</ele>
        <time>2022-05-05T11:52:51.085Z</time>
      </trkpt>
      <trkpt lat="45.27378" lon="4.53275">
        <ele>723.86</ele>
        <time>2022-05-05T11:53:14.000Z</time>
      </trkpt>
      <trkpt lat="45.27356" lon="4.53283">
        <ele>722.6</ele>
        <time>2022-05-05T11:53:37.071Z</time>
      </trkpt>
      <trkpt lat="45.27332" lon="4.53281">
        <ele>722.69</ele>
        <time>2022-05-05T11:54:03.564Z</time>
      </trkpt>
      <trkpt lat="45.27318" lon="4.53254">
        <ele>721.87</ele>
        <time>2022-05-05T11:54:31.705Z</time>
      </trkpt>
      <trkpt lat="45.2731" lon="4.53223">
        <ele>721.15</ele>
        <time>2022-05-05T11:55:09.606Z</time>
      </trkpt>
      <trkpt lat="45.27306" lon="4.53191">
        <ele>718.31</ele>
        <time>2022-05-05T11:55:35.604Z</time>
      </trkpt>
      <trkpt lat="45.27302" lon="4.53159">
        <ele>719.86</ele>
        <time>2022-05-05T11:56:00.602Z</time>
      </trkpt>
      <trkpt lat="45.273" lon="4.53126">
        <ele>720.99</ele>
        <time>2022-05-05T11:56:48.882Z</time>
      </trkpt>
      <trkpt lat="45.27302" lon="4.53093">
        <ele>719.22</ele>
        <time>2022-05-05T11:57:14.243Z</time>
      </trkpt>
      <trkpt lat="45.27304" lon="4.5306">
        <ele>728.13</ele>
        <time>2022-05-05T11:57:38.542Z</time>
      </trkpt>
      <trkpt lat="45.27308" lon="4.53029">
        <ele>733.34</ele>
        <time>2022-05-05T11:58:01.762Z</time>
      </trkpt>
      <trkpt lat="45.27313" lon="4.52997">
        <ele>734.32</ele>
        <time>2022-05-05T11:58:26.000Z</time>
      </trkpt>
      <trkpt lat="45.27321" lon="4.52968">
        <ele>732.35</ele>
        <time>2022-05-05T11:59:01.098Z</time>
      </trkpt>
      <trkpt lat="45.27332" lon="4.52937">
        <ele>729.13</ele>
        <time>2022-05-05T11:59:25.040Z</time>
      </trkpt>
      <trkpt lat="45.27341" lon="4.52908">
        <ele>725.39</ele>
        <time>2022-05-05T11:59:50.962Z</time>
      </trkpt>
      <trkpt lat="45.27352" lon="4.5288">
        <ele>722.02</ele>
        <time>2022-05-05T12:00:18.400Z</time>
      </trkpt>
      <trkpt lat="45.27365" lon="4.52853">
        <ele>723.39</ele>
        <time>2022-05-05T12:00:46.000Z</time>
      </trkpt>
      <trkpt lat="45.27379" lon="4.52827">
        <ele>723.22</ele>
        <time>2022-05-05T12:01:11.108Z</time>
      </trkpt>
      <trkpt lat="45.27398" lon="4.52811">
        <ele>723.72</ele>
        <time>2022-05-05T12:14:45.603Z</time>
      </trkpt>
      <trkpt lat="45.27414" lon="4.52787">
        <ele>724.52</ele>
        <time>2022-05-05T12:15:10.582Z</time>
      </trkpt>
      <trkpt lat="45.2743" lon="4.52764">
        <ele>727.77</ele>
        <time>2022-05-05T12:15:37.000Z</time>
      </trkpt>
      <trkpt lat="45.27446" lon="4.52741">
        <ele>729.3</ele>
        <time>2022-05-05T12:16:23.561Z</time>
      </trkpt>
      <trkpt lat="45.27463" lon="4.52719">
        <ele>730.46</ele>
        <time>2022-05-05T12:16:49.000Z</time>
      </trkpt>
      <trkpt lat="45.27481" lon="4.52699">
        <ele>732.52</ele>
        <time>2022-05-05T12:17:12.703Z</time>
      </trkpt>
      <trkpt lat="45.27502" lon="4.52687">
        <ele>732.04</ele>
        <time>2022-05-05T12:17:39.000Z</time>
      </trkpt>
      <trkpt lat="45.27523" lon="4.52673">
        <ele>736.87</ele>
        <time>2022-05-05T12:18:04.546Z</time>
      </trkpt>
      <trkpt lat="45.27544" lon="4.52658">
        <ele>735.47</ele>
        <time>2022-05-05T12:18:30.000Z</time>
      </trkpt>
      <trkpt lat="45.27562" lon="4.52637">
        <ele>737.22</ele>
        <time>2022-05-05T12:19:08.445Z</time>
      </trkpt>
      <trkpt lat="45.27577" lon="4.52613">
        <ele>736.63</ele>
        <time>2022-05-05T12:19:34.702Z</time>
      </trkpt>
      <trkpt lat="45.27593" lon="4.52589">
        <ele>732.63</ele>
        <time>2022-05-05T12:20:00.000Z</time>
      </trkpt>
      <trkpt lat="45.27609" lon="4.52562">
        <ele>730.86</ele>
        <time>2022-05-05T12:20:31.000Z</time>
      </trkpt>
      <trkpt lat="45.27624" lon="4.52536">
        <ele>733.93</ele>
        <time>2022-05-05T12:20:54.648Z</time>
      </trkpt>
      <trkpt lat="45.27642" lon="4.52514">
        <ele>735.39</ele>
        <time>2022-05-05T12:21:20.000Z</time>
      </trkpt>
      <trkpt lat="45.2766" lon="4.52494">
        <ele>735.23</ele>
        <time>2022-05-05T12:21:43.000Z</time>
      </trkpt>
      <trkpt lat="45.27678" lon="4.52473">
        <ele>741.56</ele>
        <time>2022-05-05T12:22:05.742Z</time>
      </trkpt>
      <trkpt lat="45.27695" lon="4.5245">
        <ele>742.41</ele>
        <time>2022-05-05T12:22:31.000Z</time>
      </trkpt>
      <trkpt lat="45.27706" lon="4.52421">
        <ele>746.2</ele>
        <time>2022-05-05T12:22:55.826Z</time>
      </trkpt>
      <trkpt lat="45.27712" lon="4.5239">
        <ele>745.78</ele>
        <time>2022-05-05T12:23:20.767Z</time>
      </trkpt>
      <trkpt lat="45.27707" lon="4.52359">
        <ele>751.81</ele>
        <time>2022-05-05T12:23:48.638Z</time>
      </trkpt>
      <trkpt lat="45.27691" lon="4.52333">
        <ele>754.18</ele>
        <time>2022-05-05T12:24:17.586Z</time>
      </trkpt>
      <trkpt lat="45.27673" lon="4.52312">
        <ele>750.62</ele>
        <time>2022-05-05T12:26:52.618Z</time>
      </trkpt>
      <trkpt lat="45.27658" lon="4.52288">
        <ele>750.22</ele>
        <time>2022-05-05T12:27:18.000Z</time>
      </trkpt>
      <trkpt lat="45.27641" lon="4.52266">
        <ele>749.59</ele>
        <time>2022-05-05T12:27:37.058Z</time>
      </trkpt>
      <trkpt lat="45.27623" lon="4.52246">
        <ele>748.38</ele>
        <time>2022-05-05T12:28:21.462Z</time>
      </trkpt>
      <trkpt lat="45.27604" lon="4.52229">
        <ele>747.93</ele>
        <time>2022-05-05T12:28:41.064Z</time>
      </trkpt>
      <trkpt lat="45.27586" lon="4.52211">
        <ele>747.37</ele>
        <time>2022-05-05T12:29:04.507Z</time>
      </trkpt>
      <trkpt lat="45.27566" lon="4.52194">
        <ele>746.18</ele>
        <time>2022-05-05T12:29:26.761Z</time>
      </trkpt>
      <trkpt lat="45.27545" lon="4.5218">
        <ele>743.81</ele>
        <time>2022-05-05T12:29:49.020Z</time>
      </trkpt>
      <trkpt lat="45.27523" lon="4.52169">
        <ele>750.23</ele>
        <time>2022-05-05T12:30:08.006Z</time>
      </trkpt>
      <trkpt lat="45.27504" lon="4.5215">
        <ele>754.59</ele>
        <time>2022-05-05T12:30:28.479Z</time>
      </trkpt>
      <trkpt lat="45.2749" lon="4.52124">
        <ele>753.03</ele>
        <time>2022-05-05T12:30:50.348Z</time>
      </trkpt>
      <trkpt lat="45.27487" lon="4.52091">
        <ele>743.76</ele>
        <time>2022-05-05T12:31:28.481Z</time>
      </trkpt>
      <trkpt lat="45.27488" lon="4.52056">
        <ele>746.11</ele>
        <time>2022-05-05T12:31:51.559Z</time>
      </trkpt>
      <trkpt lat="45.27492" lon="4.52023">
        <ele>745.62</ele>
        <time>2022-05-05T12:32:17.000Z</time>
      </trkpt>
      <trkpt lat="45.27503" lon="4.51995">
        <ele>751.89</ele>
        <time>2022-05-05T12:32:48.000Z</time>
      </trkpt>
      <trkpt lat="45.27513" lon="4.51966">
        <ele>750.25</ele>
        <time>2022-05-05T12:33:09.661Z</time>
      </trkpt>
      <trkpt lat="45.27516" lon="4.51935">
        <ele>749.71</ele>
        <time>2022-05-05T12:33:33.104Z</time>
      </trkpt>
      <trkpt lat="45.27508" lon="4.51905">
        <ele>750.65</ele>
        <time>2022-05-05T12:33:55.067Z</time>
      </trkpt>
      <trkpt lat="45.275" lon="4.51875">
        <ele>754.16</ele>
        <time>2022-05-05T12:34:14.064Z</time>
      </trkpt>
      <trkpt lat="45.27492" lon="4.51843">
        <ele>752.45</ele>
        <time>2022-05-05T12:35:06.761Z</time>
      </trkpt>
      <trkpt lat="45.27493" lon="4.51811">
        <ele>751.01</ele>
        <time>2022-05-05T12:35:26.601Z</time>
      </trkpt>
      <trkpt lat="45.27498" lon="4.51778">
        <ele>757.5</ele>
        <time>2022-05-05T12:35:48.505Z</time>
      </trkpt>
      <trkpt lat="45.27489" lon="4.51747">
        <ele>760.16</ele>
        <time>2022-05-05T12:36:11.026Z</time>
      </trkpt>
      <trkpt lat="45.27475" lon="4.51722">
        <ele>763.33</ele>
        <time>2022-05-05T12:36:33.000Z</time>
      </trkpt>
      <trkpt lat="45.27455" lon="4.51706">
        <ele>759.92</ele>
        <time>2022-05-05T12:36:51.687Z</time>
      </trkpt>
      <trkpt lat="45.27433" lon="4.51698">
        <ele>757.95</ele>
        <time>2022-05-05T12:37:16.483Z</time>
      </trkpt>
      <trkpt lat="45.27411" lon="4.51691">
        <ele>761.78</ele>
        <time>2022-05-05T12:37:37.082Z</time>
      </trkpt>
      <trkpt lat="45.27389" lon="4.51682">
        <ele>767.39</ele>
        <time>2022-05-05T12:37:58.000Z</time>
      </trkpt>
      <trkpt lat="45.27365" lon="4.51677">
        <ele>767.46</ele>
        <time>2022-05-05T12:38:18.704Z</time>
      </trkpt>
      <trkpt lat="45.27341" lon="4.51671">
        <ele>765.17</ele>
        <time>2022-05-05T12:38:40.945Z</time>
      </trkpt>
      <trkpt lat="45.2732" lon="4.5166">
        <ele>768.66</ele>
        <time>2022-05-05T12:39:00.342Z</time>
      </trkpt>
      <trkpt lat="45.273" lon="4.51646">
        <ele>765.1</ele>
        <time>2022-05-05T12:39:24.545Z</time>
      </trkpt>
      <trkpt lat="45.27281" lon="4.51628">
        <ele>756.04</ele>
        <time>2022-05-05T12:39:50.000Z</time>
      </trkpt>
      <trkpt lat="45.27261" lon="4.5161">
        <ele>754.46</ele>
        <time>2022-05-05T12:40:15.484Z</time>
      </trkpt>
      <trkpt lat="45.27252" lon="4.51581">
        <ele>752.48</ele>
        <time>2022-05-05T12:40:39.638Z</time>
      </trkpt>
      <trkpt lat="45.27242" lon="4.51551">
        <ele>752.87</ele>
        <time>2022-05-05T12:41:01.660Z</time>
      </trkpt>
      <trkpt lat="45.27234" lon="4.51521">
        <ele>751.25</ele>
        <time>2022-05-05T12:41:23.507Z</time>
      </trkpt>
      <trkpt lat="45.27229" lon="4.51486">
        <ele>754.74</ele>
        <time>2022-05-05T12:42:00.000Z</time>
      </trkpt>
      <trkpt lat="45.27226" lon="4.51454">
        <ele>756.82</ele>
        <time>2022-05-05T12:42:21.567Z</time>
      </trkpt>
      <trkpt lat="45.27224" lon="4.51421">
        <ele>758.4</ele>
        <time>2022-05-05T12:42:44.000Z</time>
      </trkpt>
      <trkpt lat="45.27224" lon="4.51387">
        <ele>755.39</ele>
        <time>2022-05-05T12:43:09.000Z</time>
      </trkpt>
      <trkpt lat="45.27225" lon="4.51355">
        <ele>756</ele>
        <time>2022-05-05T12:43:30.000Z</time>
      </trkpt>
      <trkpt lat="45.27229" lon="4.51323">
        <ele>758.49</ele>
        <time>2022-05-05T12:43:53.000Z</time>
      </trkpt>
      <trkpt lat="45.27231" lon="4.51292">
        <ele>765.23</ele>
        <time>2022-05-05T12:44:10.823Z</time>
      </trkpt>
      <trkpt lat="45.27236" lon="4.5126">
        <ele>761.9</ele>
        <time>2022-05-05T12:47:59.561Z</time>
      </trkpt>
      <trkpt lat="45.27232" lon="4.51227">
        <ele>762.46</ele>
        <time>2022-05-05T12:48:22.466Z</time>
      </trkpt>
      <trkpt lat="45.27229" lon="4.51192">
        <ele>759.72</ele>
        <time>2022-05-05T12:48:48.000Z</time>
      </trkpt>
      <trkpt lat="45.27222" lon="4.51159">
        <ele>762.68</ele>
        <time>2022-05-05T12:49:12.000Z</time>
      </trkpt>
      <trkpt lat="45.27215" lon="4.51129">
        <ele>761.32</ele>
        <time>2022-05-05T12:49:34.666Z</time>
      </trkpt>
      <trkpt lat="45.27208" lon="4.51098">
        <ele>760.75</ele>
        <time>2022-05-05T12:49:56.283Z</time>
      </trkpt>
      <trkpt lat="45.27199" lon="4.51068">
        <ele>761.25</ele>
        <time>2022-05-05T12:50:18.900Z</time>
      </trkpt>
      <trkpt lat="45.27188" lon="4.51038">
        <ele>765.7</ele>
        <time>2022-05-05T12:50:51.526Z</time>
      </trkpt>
      <trkpt lat="45.27179" lon="4.51008">
        <ele>769.03</ele>
        <time>2022-05-05T12:51:13.000Z</time>
      </trkpt>
      <trkpt lat="45.27171" lon="4.50976">
        <ele>765.11</ele>
        <time>2022-05-05T12:51:33.041Z</time>
      </trkpt>
      <trkpt lat="45.27162" lon="4.50947">
        <ele>763.61</ele>
        <time>2022-05-05T12:51:56.799Z</time>
      </trkpt>
      <trkpt lat="45.27149" lon="4.5092">
        <ele>766.05</ele>
        <time>2022-05-05T12:52:18.055Z</time>
      </trkpt>
      <trkpt lat="45.27139" lon="4.50891">
        <ele>770.93</ele>
        <time>2022-05-05T12:52:41.000Z</time>
      </trkpt>
      <trkpt lat="45.27134" lon="4.50859">
        <ele>772.83</ele>
        <time>2022-05-05T12:53:02.000Z</time>
      </trkpt>
      <trkpt lat="45.27129" lon="4.50828">
        <ele>773.53</ele>
        <time>2022-05-05T12:53:25.000Z</time>
      </trkpt>
      <trkpt lat="45.27119" lon="4.50798">
        <ele>775.15</ele>
        <time>2022-05-05T12:53:49.400Z</time>
      </trkpt>
      <trkpt lat="45.27113" lon="4.50767">
        <ele>776.82</ele>
        <time>2022-05-05T12:54:10.000Z</time>
      </trkpt>
      <trkpt lat="45.27103" lon="4.50738">
        <ele>774.65</ele>
        <time>2022-05-05T12:54:31.000Z</time>
      </trkpt>
      <trkpt lat="45.27093" lon="4.50709">
        <ele>774.8</ele>
        <time>2022-05-05T12:54:53.702Z</time>
      </trkpt>
      <trkpt lat="45.27079" lon="4.50683">
        <ele>775.17</ele>
        <time>2022-05-05T12:55:18.000Z</time>
      </trkpt>
      <trkpt lat="45.27066" lon="4.50657">
        <ele>780.29</ele>
        <time>2022-05-05T12:55:35.965Z</time>
      </trkpt>
      <trkpt lat="45.27053" lon="4.50629">
        <ele>784.96</ele>
        <time>2022-05-05T12:55:59.000Z</time>
      </trkpt>
      <trkpt lat="45.27037" lon="4.50606">
        <ele>784.01</ele>
        <time>2022-05-05T12:56:19.084Z</time>
      </trkpt>
      <trkpt lat="45.27023" lon="4.50579">
        <ele>783.94</ele>
        <time>2022-05-05T12:57:17.000Z</time>
      </trkpt>
      <trkpt lat="45.27004" lon="4.50561">
        <ele>782.87</ele>
        <time>2022-05-05T12:57:38.019Z</time>
      </trkpt>
      <trkpt lat="45.26986" lon="4.50541">
        <ele>785.02</ele>
        <time>2022-05-05T12:57:58.000Z</time>
      </trkpt>
      <trkpt lat="45.26967" lon="4.50522">
        <ele>783.88</ele>
        <time>2022-05-05T12:58:20.906Z</time>
      </trkpt>
      <trkpt lat="45.26948" lon="4.50502">
        <ele>784.15</ele>
        <time>2022-05-05T12:58:44.463Z</time>
      </trkpt>
      <trkpt lat="45.26928" lon="4.50484">
        <ele>783.63</ele>
        <time>2022-05-05T12:59:29.463Z</time>
      </trkpt>
      <trkpt lat="45.26909" lon="4.50465">
        <ele>789.8</ele>
        <time>2022-05-05T12:59:52.065Z</time>
      </trkpt>
      <trkpt lat="45.2689" lon="4.50445">
        <ele>781.2</ele>
        <time>2022-05-05T13:00:21.679Z</time>
      </trkpt>
      <trkpt lat="45.26873" lon="4.50424">
        <ele>790.08</ele>
        <time>2022-05-05T13:00:52.071Z</time>
      </trkpt>
      <trkpt lat="45.26856" lon="4.504">
        <ele>780.67</ele>
        <time>2022-05-05T13:01:16.903Z</time>
      </trkpt>
      <trkpt lat="45.2684" lon="4.50377">
        <ele>779.52</ele>
        <time>2022-05-05T13:01:38.038Z</time>
      </trkpt>
      <trkpt lat="45.26818" lon="4.50367">
        <ele>779.91</ele>
        <time>2022-05-05T13:03:15.063Z</time>
      </trkpt>
      <trkpt lat="45.26801" lon="4.50389">
        <ele>785.57</ele>
        <time>2022-05-05T13:03:52.628Z</time>
      </trkpt>
      <trkpt lat="45.26813" lon="4.50418">
        <ele>784.94</ele>
        <time>2022-05-05T13:04:17.000Z</time>
      </trkpt>
      <trkpt lat="45.26827" lon="4.50442">
        <ele>781.83</ele>
        <time>2022-05-05T13:04:44.000Z</time>
      </trkpt>
      <trkpt lat="45.26843" lon="4.50468">
        <ele>781.53</ele>
        <time>2022-05-05T13:05:05.807Z</time>
      </trkpt>
      <trkpt lat="45.26857" lon="4.50496">
        <ele>783.97</ele>
        <time>2022-05-05T13:05:28.845Z</time>
      </trkpt>
      <trkpt lat="45.26866" lon="4.50526">
        <ele>787</ele>
        <time>2022-05-05T13:06:03.999Z</time>
      </trkpt>
      <trkpt lat="45.2685" lon="4.50549">
        <ele>792.69</ele>
        <time>2022-05-05T13:07:33.628Z</time>
      </trkpt>
      <trkpt lat="45.26858" lon="4.50538">
        <ele>789.06</ele>
        <time>2022-05-05T13:09:12.000Z</time>
      </trkpt>
    </trkseg>
  </trk>
</gpx>